Time;durP1;ratioP1;P1;durP2;ratioP2;P2;SDS_P1;SDS_P2;PMS_P1;PMS_P2;Temp;Humidity;BMP_temperature;BMP_pressure;BME280_temperature;BME280_humidity;BME280_pressure;Samples;Min_cycle;Max_cycle;Signal;HPM_P1;HPM_P2
2024/03/05 00:02:24;;;;;;;51.00;37.13;;;10.30;99.90;;;;;;5015899;28;20668;-81
2024/03/05 00:04:51;;;;;;;51.30;37.67;;;10.30;99.90;;;;;;5031731;28;20639;-82
2024/03/05 00:07:24;;;;;;;53.38;38.03;;;10.30;99.90;;;;;;5020436;28;20205;-80
2024/03/05 00:09:53;;;;;;;47.58;35.53;;;10.30;99.90;;;;;;5031097;28;20213;-82
2024/03/05 00:12:21;;;;;;;47.38;33.53;;;10.30;99.90;;;;;;5024970;28;20209;-81
2024/03/05 00:14:55;;;;;;;53.92;38.00;;;10.40;99.90;;;;;;5020806;28;20261;-81
2024/03/05 00:17:23;;;;;;;50.05;33.08;;;10.30;99.90;;;;;;5026423;28;20205;-82
2024/03/05 00:19:50;;;;;;;47.03;35.75;;;10.30;99.90;;;;;;5033395;28;20189;-82
2024/03/05 00:22:19;;;;;;;45.13;36.22;;;10.10;99.90;;;;;;5054304;28;20215;-80
2024/03/05 00:24:48;;;;;;;43.13;33.33;;;10.20;99.90;;;;;;5033828;28;20236;-79
2024/03/05 00:27:15;;;;;;;41.72;30.42;;;10.20;99.90;;;;;;5036763;28;20216;-79
2024/03/05 00:29:42;;;;;;;48.83;34.58;;;10.20;99.90;;;;;;5044099;28;20225;-79
2024/03/05 00:32:09;;;;;;;42.47;33.72;;;10.10;99.90;;;;;;5037378;28;20209;-79
2024/03/05 00:34:36;;;;;;;49.40;35.33;;;10.10;99.90;;;;;;5045421;28;20214;-80
2024/03/05 00:37:07;;;;;;;45.45;32.33;;;10.10;99.90;;;;;;5032450;28;20203;-80
2024/03/05 00:39:34;;;;;;;45.83;32.05;;;10.00;99.90;;;;;;5038883;28;20579;-79
2024/03/05 00:42:04;;;;;;;45.28;33.35;;;10.00;99.90;;;;;;5037068;28;20197;-80
2024/03/05 00:44:32;;;;;;;39.53;29.67;;;9.90;99.90;;;;;;5040570;28;20248;-80
2024/03/05 00:47:01;;;;;;;49.63;33.08;;;10.00;99.90;;;;;;5032341;28;20208;-80
2024/03/05 00:49:35;;;;;;;46.35;31.10;;;9.80;99.90;;;;;;5037002;28;20236;-81
2024/03/05 00:52:13;;;;;;;42.00;29.88;;;9.70;99.90;;;;;;5022947;28;20209;-81
2024/03/05 00:54:55;;;;;;;38.85;30.08;;;9.60;99.90;;;;;;5033300;28;20228;-81
2024/03/05 00:57:34;;;;;;;42.92;31.92;;;9.80;99.90;;;;;;5037337;28;20201;-82
2024/03/05 01:00:13;;;;;;;41.42;30.00;;;9.60;99.90;;;;;;5046514;28;20197;-81
2024/03/05 01:02:43;;;;;;;40.17;28.50;;;9.40;99.90;;;;;;5044175;28;20219;-81
2024/03/05 01:05:13;;;;;;;54.70;30.85;;;9.30;99.90;;;;;;5035475;28;20261;-79
2024/03/05 01:07:45;;;;;;;39.60;27.38;;;9.30;99.90;;;;;;5038183;28;20236;-80
2024/03/05 01:10:12;;;;;;;41.67;28.73;;;9.30;99.90;;;;;;5043426;28;20257;-81
2024/03/05 01:12:41;;;;;;;39.80;29.38;;;9.30;99.90;;;;;;5031834;28;20300;-79
2024/03/05 01:15:10;;;;;;;39.33;28.05;;;9.30;99.90;;;;;;5055625;28;20232;-79
2024/03/05 01:17:40;;;;;;;37.35;25.20;;;9.40;99.90;;;;;;5051619;28;20212;-78
2024/03/05 01:20:15;;;;;;;37.55;26.70;;;9.40;99.90;;;;;;5036601;28;20204;-80
2024/03/05 01:22:49;;;;;;;40.17;26.20;;;9.20;99.90;;;;;;5031093;28;20205;-81
2024/03/05 01:25:16;;;;;;;33.67;24.55;;;9.30;99.90;;;;;;5035239;28;20221;-80
2024/03/05 01:27:54;;;;;;;36.90;26.88;;;9.30;99.90;;;;;;5029679;28;20205;-81
2024/03/05 01:30:24;;;;;;;36.20;26.23;;;9.20;99.90;;;;;;5035972;28;20201;-81
2024/03/05 01:32:56;;;;;;;33.65;22.33;;;9.20;99.90;;;;;;5036562;28;20205;-81
2024/03/05 01:35:23;;;;;;;32.35;23.77;;;9.20;99.90;;;;;;5032404;28;20259;-80
2024/03/05 01:37:51;;;;;;;36.78;25.35;;;9.20;99.90;;;;;;5043763;28;20212;-79
2024/03/05 01:40:19;;;;;;;31.88;24.05;;;9.10;99.90;;;;;;5033848;28;20201;-79
2024/03/05 01:42:57;;;;;;;28.42;21.15;;;9.10;99.90;;;;;;5037874;28;20204;-81
2024/03/05 01:45:34;;;;;;;29.25;23.92;;;9.10;99.90;;;;;;5045443;28;20229;-79
2024/03/05 01:48:27;;;;;;;34.60;25.70;;;9.00;99.90;;;;;;5045152;28;20241;-79
2024/03/05 01:51:06;;;;;;;37.53;24.80;;;8.70;99.90;;;;;;5030797;28;20210;-79
2024/03/05 01:53:36;;;;;;;34.50;24.85;;;8.60;99.90;;;;;;5038152;28;20185;-81
2024/03/05 01:56:07;;;;;;;32.22;23.45;;;8.60;99.90;;;;;;5011329;28;20217;-82
2024/03/05 01:58:36;;;;;;;32.33;22.48;;;8.60;99.90;;;;;;5027696;28;20210;-81
2024/03/05 02:01:06;;;;;;;32.05;21.70;;;8.60;99.90;;;;;;5010142;28;20240;-82
2024/03/05 02:03:34;;;;;;;37.33;25.88;;;8.50;99.90;;;;;;5033502;28;20198;-80
2024/03/05 02:06:11;;;;;;;34.40;22.65;;;8.60;99.90;;;;;;5043103;28;20220;-81
2024/03/05 02:08:43;;;;;;;30.42;22.60;;;8.60;99.90;;;;;;5038117;28;20221;-82
2024/03/05 02:11:14;;;;;;;32.58;22.92;;;8.60;99.90;;;;;;5035417;28;20202;-80
2024/03/05 02:13:44;;;;;;;30.75;21.63;;;8.70;99.90;;;;;;5032038;28;20202;-81
2024/03/05 02:16:13;;;;;;;29.80;21.83;;;8.60;99.90;;;;;;5026955;28;20221;-82
2024/03/05 02:18:46;;;;;;;31.90;22.75;;;8.40;99.90;;;;;;5018878;28;20579;-82
2024/03/05 02:21:26;;;;;;;32.63;21.25;;;8.50;99.90;;;;;;5017887;28;20197;-81
2024/03/05 02:24:15;;;;;;;32.53;20.58;;;8.50;99.90;;;;;;5022512;28;20204;-82
2024/03/05 02:26:48;;;;;;;25.90;19.33;;;8.60;99.90;;;;;;4997329;28;20210;-81
2024/03/05 02:29:24;;;;;;;29.88;21.33;;;8.60;99.90;;;;;;5000953;28;20245;-81
2024/03/05 02:32:26;;;;;;;29.88;21.17;;;8.50;99.90;;;;;;5000247;28;20216;-82
2024/03/05 02:34:58;;;;;;;27.25;21.25;;;8.60;99.90;;;;;;4999948;28;20222;-80
2024/03/05 02:38:05;;;;;;;38.85;20.85;;;8.60;99.90;;;;;;5013896;28;20202;-80
2024/03/05 02:40:42;;;;;;;33.17;21.00;;;8.60;99.90;;;;;;5006958;28;20224;-79
2024/03/05 02:43:37;;;;;;;30.77;20.30;;;8.40;99.90;;;;;;5000788;28;20201;-82
2024/03/05 02:46:09;;;;;;;31.65;21.15;;;8.60;99.90;;;;;;5001307;28;20701;-83
2024/03/05 02:48:40;;;;;;;24.50;19.27;;;8.50;99.90;;;;;;5000190;28;20221;-80
2024/03/05 02:51:14;;;;;;;28.25;21.48;;;8.50;99.90;;;;;;5001213;28;20209;-81
2024/03/05 02:56:31;;;;;;;27.65;19.60;;;8.40;99.90;;;;;;4998286;28;20257;-80
2024/03/05 02:59:05;;;;;;;24.67;18.80;;;8.30;99.90;;;;;;4996225;28;20214;-82
2024/03/05 03:04:40;;;;;;;24.30;18.70;;;8.20;99.90;;;;;;5002089;28;20230;-80
2024/03/05 03:07:10;;;;;;;25.10;17.90;;;8.30;99.90;;;;;;5003861;28;20252;-81
2024/03/05 03:09:38;;;;;;;27.23;19.60;;;8.30;99.90;;;;;;4998938;28;20226;-79
2024/03/05 03:12:08;;;;;;;33.42;18.70;;;8.20;99.90;;;;;;5002471;28;20206;-82
2024/03/05 03:14:48;;;;;;;26.60;19.33;;;8.20;99.90;;;;;;5005874;28;20225;-80
2024/03/05 03:17:20;;;;;;;23.92;19.63;;;8.00;99.90;;;;;;5009971;28;20232;-81
2024/03/05 03:19:47;;;;;;;28.83;20.83;;;8.00;99.90;;;;;;5007989;28;20241;-81
2024/03/05 03:22:15;;;;;;;29.90;23.20;;;8.00;99.90;;;;;;5008255;28;20233;-80
2024/03/05 03:24:44;;;;;;;29.00;20.02;;;7.90;99.90;;;;;;5007392;28;20234;-82
2024/03/05 03:27:33;;;;;;;28.15;20.75;;;8.00;99.90;;;;;;5006545;28;20218;-80
2024/03/05 03:30:20;;;;;;;31.77;21.40;;;8.00;99.90;;;;;;5007429;28;20222;-80
2024/03/05 03:32:49;;;;;;;27.70;19.30;;;8.00;99.90;;;;;;5004715;28;20228;-80
2024/03/05 03:35:18;;;;;;;27.30;22.17;;;8.10;99.90;;;;;;5005668;28;20229;-80
2024/03/05 03:37:47;;;;;;;28.75;21.05;;;8.00;99.90;;;;;;5006657;28;20190;-79
2024/03/05 03:40:20;;;;;;;30.05;21.67;;;8.00;99.90;;;;;;5011408;28;20269;-79
2024/03/05 03:42:58;;;;;;;25.70;18.55;;;8.00;99.90;;;;;;5010162;28;20203;-80
2024/03/05 03:45:32;;;;;;;27.80;21.25;;;8.00;99.90;;;;;;5008293;28;20229;-79
2024/03/05 03:48:02;;;;;;;28.80;20.60;;;7.90;99.90;;;;;;5011126;28;20214;-79
2024/03/05 03:50:29;;;;;;;30.83;20.30;;;7.90;99.90;;;;;;5000634;28;20283;-80
2024/03/05 03:52:56;;;;;;;39.35;22.90;;;7.90;99.90;;;;;;5006318;28;20213;-81
2024/03/05 03:55:26;;;;;;;35.08;23.38;;;8.00;99.90;;;;;;5005415;28;20222;-80
2024/03/05 03:57:54;;;;;;;26.60;19.65;;;7.90;99.90;;;;;;5004884;28;20213;-80
2024/03/05 04:00:23;;;;;;;29.40;20.33;;;7.90;99.90;;;;;;5002119;28;20575;-80
2024/03/05 04:02:50;;;;;;;29.13;19.90;;;7.90;99.90;;;;;;5004143;28;20305;-81
2024/03/05 04:05:17;;;;;;;30.63;21.65;;;7.90;99.90;;;;;;5006140;28;20226;-79
2024/03/05 04:07:44;;;;;;;30.52;20.95;;;7.80;99.90;;;;;;5006204;28;20206;-80
2024/03/05 04:10:15;;;;;;;33.35;21.98;;;7.70;99.90;;;;;;5005267;28;20222;-80
2024/03/05 04:13:23;;;;;;;35.28;22.63;;;7.70;99.90;;;;;;5006563;28;20741;-80
2024/03/05 04:15:55;;;;;;;30.75;21.75;;;7.60;99.90;;;;;;5004441;28;20222;-81
2024/03/05 04:18:35;;;;;;;30.00;20.88;;;7.70;99.90;;;;;;5007969;28;20225;-80
2024/03/05 04:21:23;;;;;;;29.58;18.92;;;7.60;99.90;;;;;;5004339;28;20205;-80
2024/03/05 04:24:00;;;;;;;34.63;23.08;;;7.50;99.90;;;;;;5001576;28;20221;-82
2024/03/05 04:27:02;;;;;;;30.30;21.15;;;7.50;99.90;;;;;;5003159;28;20228;-80
2024/03/05 04:29:47;;;;;;;27.65;21.00;;;7.40;99.90;;;;;;5007750;28;20229;-79
2024/03/05 04:32:17;;;;;;;31.20;21.45;;;7.40;99.90;;;;;;4999934;28;20236;-80
2024/03/05 04:34:49;;;;;;;33.53;22.58;;;7.40;99.90;;;;;;4997661;28;20285;-81
2024/03/05 04:37:26;;;;;;;27.15;22.08;;;7.30;99.90;;;;;;5000983;28;20237;-81
2024/03/05 04:40:03;;;;;;;30.20;18.13;;;7.30;99.90;;;;;;4998181;28;20206;-79
2024/03/05 04:43:08;;;;;;;29.23;21.35;;;7.30;99.90;;;;;;5002318;28;20209;-83
2024/03/05 04:46:34;;;;;;;27.67;20.30;;;7.30;99.90;;;;;;5002962;28;20232;-80
2024/03/05 04:49:25;;;;;;;31.42;21.52;;;7.20;99.90;;;;;;5005690;28;20241;-80
2024/03/05 04:52:27;;;;;;;37.42;21.90;;;7.10;99.90;;;;;;4999534;28;20273;-81
2024/03/05 04:54:55;;;;;;;37.40;22.10;;;6.90;99.90;;;;;;5004646;28;20300;-79
2024/03/05 04:57:22;;;;;;;36.80;22.23;;;7.00;99.90;;;;;;5016921;28;20202;-79
2024/03/05 04:59:49;;;;;;;30.73;23.38;;;7.00;99.90;;;;;;5016501;28;20186;-79
2024/03/05 05:02:17;;;;;;;35.33;20.88;;;6.90;99.90;;;;;;5016637;28;20178;-78
2024/03/05 05:04:47;;;;;;;31.20;22.52;;;7.00;99.90;;;;;;5018448;28;20214;-81
2024/03/05 05:07:16;;;;;;;35.92;22.90;;;6.90;99.90;;;;;;5020421;28;20186;-78
2024/03/05 05:09:47;;;;;;;32.35;23.05;;;6.80;99.90;;;;;;5017120;28;20225;-80
2024/03/05 05:18:00;;;;;;;32.78;22.23;;;6.90;99.90;;;;;;5009979;28;20209;-79
2024/03/05 05:20:33;;;;;;;37.85;23.27;;;6.90;99.90;;;;;;5012568;28;20240;-79
2024/03/05 05:23:00;;;;;;;30.25;22.00;;;6.90;99.90;;;;;;5013011;28;20281;-81
2024/03/05 05:25:30;;;;;;;32.28;21.92;;;6.90;99.90;;;;;;5010418;28;20231;-80
2024/03/05 05:27:58;;;;;;;37.38;24.77;;;6.90;99.90;;;;;;5012962;28;20214;-78
2024/03/05 05:30:51;;;;;;;35.10;23.58;;;6.90;99.90;;;;;;5015660;28;20290;-79
2024/03/05 05:33:26;;;;;;;36.55;22.38;;;6.80;99.90;;;;;;5008869;28;20206;-80
2024/03/05 05:36:06;;;;;;;36.67;27.92;;;6.90;99.90;;;;;;5013073;28;20256;-81
2024/03/05 05:38:34;;;;;;;27.38;20.02;;;6.80;99.90;;;;;;5006889;28;20215;-81
2024/03/05 05:41:12;;;;;;;31.25;21.92;;;6.90;99.90;;;;;;5010837;28;20210;-82
2024/03/05 05:43:50;;;;;;;36.15;23.50;;;6.80;99.90;;;;;;5014575;28;20202;-82
2024/03/05 05:46:22;;;;;;;32.85;23.38;;;6.90;99.90;;;;;;5010228;28;20202;-82
2024/03/05 05:48:50;;;;;;;34.33;22.48;;;6.90;99.90;;;;;;5009320;28;20196;-82
2024/03/05 05:51:31;;;;;;;31.30;20.27;;;6.90;99.90;;;;;;5005670;28;20221;-83
2024/03/05 05:54:00;;;;;;;34.63;21.92;;;6.90;99.90;;;;;;5002860;28;20212;-81
2024/03/05 05:56:33;;;;;;;35.03;24.17;;;6.90;99.90;;;;;;4996410;28;20210;-83
2024/03/05 05:59:05;;;;;;;35.83;24.17;;;6.90;99.90;;;;;;4997229;28;20645;-82
2024/03/05 06:01:33;;;;;;;31.17;21.35;;;6.90;99.90;;;;;;5007074;28;20575;-83
2024/03/05 06:04:01;;;;;;;29.85;21.85;;;7.00;99.90;;;;;;5011963;28;20214;-82
2024/03/05 06:06:33;;;;;;;35.20;22.58;;;6.90;99.90;;;;;;5010409;28;20221;-81
2024/03/05 06:10:23;;;;;;;31.90;22.58;;;6.90;99.90;;;;;;5009683;28;20209;-82
2024/03/05 06:13:45;;;;;;;30.77;20.63;;;6.90;99.90;;;;;;4972337;28;20214;-83
2024/03/05 06:20:32;;;;;;;36.67;21.67;;;7.00;99.90;;;;;;4978542;28;20293;-82
2024/03/05 06:23:11;;;;;;;35.80;22.05;;;7.00;99.90;;;;;;4950362;29;20215;-80
2024/03/05 06:25:40;;;;;;;31.42;22.60;;;7.10;99.90;;;;;;4967227;28;20724;-84
2024/03/05 06:28:09;;;;;;;31.25;19.75;;;7.00;99.90;;;;;;5011809;28;20229;-82
2024/03/05 06:30:36;;;;;;;33.63;23.42;;;7.10;99.90;;;;;;5007563;28;20313;-80
2024/03/05 06:33:06;;;;;;;33.10;23.45;;;7.10;99.90;;;;;;5002867;28;20233;-80
2024/03/05 06:35:41;;;;;;;32.45;21.67;;;7.10;99.90;;;;;;5012562;28;20237;-83
2024/03/05 06:38:15;;;;;;;32.05;22.00;;;7.10;99.90;;;;;;5012001;28;20270;-81
2024/03/05 06:40:44;;;;;;;32.03;23.63;;;7.20;99.90;;;;;;5012987;28;20301;-87
2024/03/05 06:43:31;;;;;;;32.15;21.30;;;7.10;99.90;;;;;;5011760;28;20229;-85
2024/03/05 06:46:02;;;;;;;40.50;24.90;;;7.00;99.90;;;;;;5012690;28;20230;-86
2024/03/05 06:48:32;;;;;;;40.53;22.73;;;7.00;99.90;;;;;;5014008;28;20197;-86
2024/03/05 06:51:01;;;;;;;35.80;25.98;;;6.90;99.90;;;;;;5010192;28;20285;-82
2024/03/05 06:59:03;;;;;;;39.67;24.92;;;7.10;99.90;;;;;;5011658;28;20233;-83
2024/03/05 07:01:34;;;;;;;39.78;26.63;;;7.00;99.90;;;;;;5006065;28;20285;-80
2024/03/05 07:05:13;;;;;;;38.67;25.65;;;7.00;99.90;;;;;;5006411;28;20230;-82
2024/03/05 07:11:32;;;;;;;37.50;24.27;;;7.00;99.90;;;;;;4967949;28;20261;-83
2024/03/05 07:17:48;;;;;;;;;;;;;;;;;;;;;
2024/03/05 07:24:31;;;;;;;35.28;25.33;;;6.90;99.90;;;;;;4974800;28;20218;-81
2024/03/05 07:27:32;;;;;;;44.00;28.00;;;7.00;99.90;;;;;;4979126;28;20214;-81
2024/03/05 07:37:44;;;;;;;47.95;30.25;;;6.80;99.90;;;;;;5000370;28;20236;-81
2024/03/05 07:43:19;;;;;;;41.95;29.77;;;6.90;99.90;;;;;;4953627;28;20290;-80
2024/03/05 07:45:47;;;;;;;45.15;30.20;;;6.90;99.90;;;;;;4989144;28;20222;-80
2024/03/05 07:48:14;;;;;;;52.70;28.80;;;6.80;99.90;;;;;;5001722;28;20202;-80
2024/03/05 07:50:42;;;;;;;42.13;28.98;;;6.80;99.90;;;;;;5002983;28;20236;-79
2024/03/05 07:53:09;;;;;;;38.58;25.58;;;6.80;99.90;;;;;;5000074;28;20205;-80
2024/03/05 07:55:37;;;;;;;42.97;27.88;;;6.90;99.90;;;;;;5001248;28;20298;-80
2024/03/05 07:58:06;;;;;;;44.95;31.77;;;6.90;99.90;;;;;;4996585;28;20205;-81
2024/03/05 08:00:35;;;;;;;40.60;27.25;;;6.90;99.90;;;;;;4997791;28;20202;-83
2024/03/05 08:03:04;;;;;;;46.83;32.78;;;6.90;99.90;;;;;;5006553;28;20597;-81
2024/03/05 08:05:31;;;;;;;45.13;29.20;;;6.90;99.90;;;;;;5005452;28;20291;-81
2024/03/05 08:07:59;;;;;;;57.92;35.28;;;6.90;99.90;;;;;;5002444;28;20217;-80
2024/03/05 08:10:27;;;;;;;41.28;27.50;;;7.00;99.90;;;;;;5001723;28;20230;-79
2024/03/05 08:12:56;;;;;;;46.33;30.38;;;7.20;99.90;;;;;;5002828;28;20229;-79
2024/03/05 08:15:26;;;;;;;41.30;30.33;;;7.30;99.90;;;;;;5002297;28;20218;-79
2024/03/05 08:17:53;;;;;;;47.17;30.42;;;7.30;99.90;;;;;;5000599;28;20214;-78
2024/03/05 08:20:25;;;;;;;40.55;27.42;;;7.30;99.90;;;;;;4998870;28;20333;-81
2024/03/05 08:22:52;;;;;;;41.92;30.90;;;7.10;99.90;;;;;;4995851;28;20325;-78
2024/03/05 08:25:20;;;;;;;52.45;31.10;;;7.20;99.90;;;;;;5005370;28;20252;-79
2024/03/05 08:27:50;;;;;;;49.03;31.27;;;7.40;99.90;;;;;;5000222;28;20205;-82
2024/03/05 08:30:19;;;;;;;47.53;29.77;;;7.30;99.90;;;;;;5007834;28;20241;-80
2024/03/05 08:32:47;;;;;;;48.40;30.17;;;7.50;99.90;;;;;;5005578;28;20198;-80
2024/03/05 08:35:14;;;;;;;42.28;30.60;;;7.50;99.90;;;;;;5001970;28;20309;-79
2024/03/05 08:37:45;;;;;;;46.88;30.65;;;7.60;99.90;;;;;;5002707;28;20225;-79
2024/03/05 08:40:13;;;;;;;39.35;29.55;;;7.50;99.90;;;;;;5007346;28;20244;-78
2024/03/05 08:42:43;;;;;;;40.00;26.42;;;7.50;99.90;;;;;;5007198;28;20315;-80
2024/03/05 08:45:10;;;;;;;41.05;26.95;;;7.40;99.90;;;;;;5008263;28;20222;-79
2024/03/05 08:47:37;;;;;;;56.10;29.95;;;7.40;99.90;;;;;;5011075;28;20273;-78
2024/03/05 08:50:05;;;;;;;47.53;27.92;;;7.30;99.90;;;;;;5011048;28;20684;-78
2024/03/05 08:52:33;;;;;;;48.75;29.30;;;7.20;99.90;;;;;;5012934;28;20209;-80
2024/03/05 08:55:01;;;;;;;41.80;29.20;;;7.30;99.90;;;;;;5009271;28;20226;-79
2024/03/05 08:57:28;;;;;;;38.97;28.33;;;7.30;99.90;;;;;;5000565;28;20210;-78
2024/03/05 08:59:55;;;;;;;44.63;29.25;;;7.20;99.90;;;;;;4997983;28;20217;-79
2024/03/05 09:02:23;;;;;;;43.40;29.45;;;7.20;99.90;;;;;;5013828;28;20237;-81
2024/03/05 09:04:51;;;;;;;42.83;27.85;;;7.10;99.90;;;;;;5011549;28;20222;-81
2024/03/05 09:07:20;;;;;;;45.55;31.80;;;7.10;99.90;;;;;;5016140;28;20206;-81
2024/03/05 09:09:47;;;;;;;41.42;27.50;;;7.10;99.90;;;;;;5016138;28;20269;-81
2024/03/05 09:12:16;;;;;;;38.50;28.45;;;7.20;99.90;;;;;;5018618;28;20233;-82
2024/03/05 09:14:42;;;;;;;48.25;31.08;;;7.10;99.90;;;;;;5024181;22;20228;-71
2024/03/05 09:17:10;;;;;;;37.15;27.38;;;6.90;99.90;;;;;;5015290;28;20252;-72
2024/03/05 09:19:37;;;;;;;41.50;28.38;;;7.00;99.90;;;;;;5014033;28;20213;-73
2024/03/05 09:22:05;;;;;;;50.90;29.30;;;7.00;99.90;;;;;;5011470;28;20205;-73
2024/03/05 09:24:33;;;;;;;40.13;26.45;;;7.00;99.90;;;;;;5028043;28;20307;-73
2024/03/05 10:04:42;;;;;;;32.05;21.67;;;7.40;99.90;;;;;;4998419;22;20714;-73
2024/03/05 10:07:09;;;;;;;35.03;22.55;;;7.60;99.90;;;;;;5029864;28;20197;-73
2024/03/05 10:09:36;;;;;;;32.28;24.00;;;7.60;99.90;;;;;;5029862;28;20205;-73
2024/03/05 10:12:04;;;;;;;28.98;22.13;;;7.70;99.90;;;;;;5027333;28;20234;-73
2024/03/05 10:14:31;;;;;;;36.60;21.88;;;7.80;99.90;;;;;;5019156;28;20303;-73
2024/03/05 10:17:01;;;;;;;29.48;20.88;;;7.80;99.90;;;;;;5024655;28;20208;-74
2024/03/05 10:19:28;;;;;;;33.47;23.92;;;7.90;99.90;;;;;;5028325;28;20197;-73
2024/03/05 10:22:10;;;;;;;36.40;23.73;;;7.90;99.90;;;;;;5025128;28;20200;-74
2024/03/05 10:24:37;;;;;;;35.25;21.40;;;8.00;99.90;;;;;;5027871;28;20220;-73
2024/03/05 10:27:05;;;;;;;31.42;20.08;;;8.00;99.90;;;;;;5027233;28;20643;-74
2024/03/05 10:29:38;;;;;;;27.77;20.98;;;8.00;99.90;;;;;;5027026;28;20204;-71
2024/03/05 10:32:07;;;;;;;30.05;20.77;;;8.00;99.90;;;;;;5029858;28;20220;-73
2024/03/05 10:34:34;;;;;;;30.98;22.00;;;8.00;99.90;;;;;;5020242;28;20251;-72
2024/03/05 10:37:05;;;;;;;22.90;18.67;;;8.00;99.90;;;;;;5031079;28;20207;-74
2024/03/05 10:39:32;;;;;;;26.75;21.10;;;8.00;99.90;;;;;;5032375;28;20208;-74
2024/03/05 10:42:01;;;;;;;30.23;21.42;;;8.00;99.90;;;;;;5033176;28;20236;-73
2024/03/05 10:44:30;;;;;;;26.33;19.58;;;8.00;99.90;;;;;;5030588;28;20252;-74
2024/03/05 10:46:57;;;;;;;28.65;22.23;;;8.00;99.90;;;;;;5023108;28;20210;-75
2024/03/05 10:49:24;;;;;;;27.05;20.10;;;8.00;99.90;;;;;;5029159;28;20247;-73
2024/03/05 10:51:54;;;;;;;31.73;21.38;;;8.10;99.90;;;;;;5025250;28;20280;-73
2024/03/05 10:54:23;;;;;;;32.13;21.50;;;8.00;99.90;;;;;;5031091;28;20851;-74
2024/03/05 10:56:52;;;;;;;28.40;19.30;;;8.10;99.90;;;;;;5028022;28;20204;-74
2024/03/05 10:59:30;;;;;;;22.85;18.35;;;8.10;99.90;;;;;;5031920;28;20201;-74
2024/03/05 11:01:59;;;;;;;26.77;20.90;;;8.10;99.90;;;;;;5028371;28;20196;-74
2024/03/05 11:04:29;;;;;;;32.88;21.02;;;8.10;99.90;;;;;;5018451;28;20278;-74
2024/03/05 11:06:59;;;;;;;30.77;20.10;;;8.00;99.90;;;;;;5030238;28;20201;-73
2024/03/05 11:09:28;;;;;;;24.73;18.73;;;8.00;99.90;;;;;;5032715;28;20259;-74
2024/03/05 11:12:01;;;;;;;27.02;18.33;;;8.00;99.90;;;;;;5029239;28;20272;-74
2024/03/05 11:14:30;;;;;;;28.48;21.42;;;8.00;99.90;;;;;;5028087;28;20224;-75
2024/03/05 11:16:58;;;;;;;29.45;20.10;;;8.10;99.90;;;;;;5031079;28;20197;-75
2024/03/05 11:19:27;;;;;;;39.22;20.67;;;8.10;99.90;;;;;;5028737;28;20196;-75
2024/03/05 11:21:54;;;;;;;28.10;21.40;;;8.10;99.90;;;;;;5028599;28;20213;-73
2024/03/05 11:24:21;;;;;;;23.50;19.10;;;8.10;99.90;;;;;;5032506;28;20243;-74
2024/03/05 11:27:01;;;;;;;25.55;18.73;;;8.10;99.90;;;;;;5031977;28;20588;-73
2024/03/05 11:29:37;;;;;;;24.20;17.23;;;8.10;99.90;;;;;;5022083;28;20236;-74
2024/03/05 11:32:04;;;;;;;29.50;20.33;;;8.20;99.90;;;;;;5030323;28;20227;-74
2024/03/05 11:34:35;;;;;;;30.67;22.55;;;8.20;99.90;;;;;;5022495;28;20232;-73
2024/03/05 11:37:06;;;;;;;34.92;20.17;;;8.20;99.90;;;;;;5029890;28;20633;-73
2024/03/05 11:39:33;;;;;;;27.23;19.83;;;8.30;99.90;;;;;;5029976;28;20215;-73
2024/03/05 11:42:03;;;;;;;31.00;20.75;;;8.30;99.90;;;;;;5032187;28;20304;-74
2024/03/05 11:44:53;;;;;;;26.83;19.80;;;8.40;99.90;;;;;;5029484;28;20221;-72
2024/03/05 11:47:21;;;;;;;29.95;18.95;;;8.40;99.90;;;;;;5017865;28;20216;-73
2024/03/05 11:49:48;;;;;;;27.20;18.73;;;8.40;99.90;;;;;;5025331;28;20221;-75
2024/03/05 11:52:15;;;;;;;31.23;20.02;;;8.50;99.90;;;;;;5031871;28;20192;-74
2024/03/05 11:54:42;;;;;;;33.17;19.65;;;8.50;99.90;;;;;;5029661;28;20290;-74
2024/03/05 11:57:14;;;;;;;28.85;19.75;;;8.50;99.90;;;;;;5026863;28;20559;-74
2024/03/05 11:59:41;;;;;;;29.27;18.42;;;8.60;99.90;;;;;;5028052;28;20224;-73
2024/03/05 12:02:10;;;;;;;25.27;17.95;;;8.70;99.90;;;;;;5030167;28;20209;-74
2024/03/05 12:04:37;;;;;;;28.15;20.75;;;8.60;99.90;;;;;;5025332;28;20271;-73
2024/03/05 12:07:07;;;;;;;28.15;19.63;;;8.60;99.90;;;;;;5027627;28;20200;-73
2024/03/05 12:09:37;;;;;;;26.33;18.42;;;8.60;99.90;;;;;;5021850;28;20237;-74
2024/03/05 12:12:05;;;;;;;33.55;19.08;;;8.60;99.90;;;;;;5030009;28;20283;-75
2024/03/05 12:14:35;;;;;;;28.67;20.20;;;8.60;99.90;;;;;;5025161;28;20228;-72
2024/03/05 12:17:12;;;;;;;32.13;20.10;;;8.50;99.90;;;;;;5025015;28;20278;-74
2024/03/05 12:19:40;;;;;;;27.00;18.90;;;8.60;99.90;;;;;;5024475;28;20212;-74
2024/03/05 12:22:08;;;;;;;28.60;19.45;;;8.60;99.90;;;;;;5025065;28;20217;-74
2024/03/05 12:24:36;;;;;;;27.92;18.83;;;8.60;99.90;;;;;;5025489;28;20235;-73
2024/03/05 12:27:05;;;;;;;28.15;18.70;;;8.60;99.90;;;;;;5028729;28;20287;-74
2024/03/05 12:29:36;;;;;;;26.35;19.58;;;8.60;99.90;;;;;;5031904;28;20197;-73
2024/03/05 12:32:10;;;;;;;27.23;17.67;;;8.60;99.90;;;;;;5025633;28;20239;-74
2024/03/05 12:34:38;;;;;;;27.67;18.08;;;8.60;99.90;;;;;;5018904;28;20312;-74
2024/03/05 12:37:07;;;;;;;25.20;17.77;;;8.60;99.90;;;;;;5028649;28;20231;-73
2024/03/05 12:39:35;;;;;;;24.48;16.98;;;8.60;99.90;;;;;;5030917;28;20546;-74
2024/03/05 12:42:04;;;;;;;30.48;18.95;;;8.70;99.90;;;;;;5023357;28;20225;-73
2024/03/05 12:44:31;;;;;;;26.83;18.17;;;8.70;99.90;;;;;;5030097;28;20220;-72
2024/03/05 12:47:08;;;;;;;27.38;18.38;;;8.70;99.90;;;;;;5023603;28;20215;-74
2024/03/05 12:49:40;;;;;;;23.88;16.70;;;8.70;99.90;;;;;;5031279;28;20216;-73
2024/03/05 12:52:08;;;;;;;28.42;18.38;;;8.60;99.90;;;;;;5025057;28;20217;-74
2024/03/05 12:54:36;;;;;;;20.23;15.27;;;8.70;99.90;;;;;;5033198;28;20225;-74
2024/03/05 12:57:04;;;;;;;26.02;18.85;;;8.60;99.90;;;;;;5025186;28;20205;-75
2024/03/05 12:59:31;;;;;;;24.15;17.27;;;8.60;99.90;;;;;;5019653;28;20256;-74
2024/03/05 13:01:59;;;;;;;24.40;15.75;;;8.50;99.90;;;;;;5023655;28;20632;-76
2024/03/05 13:04:27;;;;;;;21.92;17.85;;;8.50;99.90;;;;;;5019125;28;20264;-76
2024/03/05 13:06:54;;;;;;;25.35;17.30;;;8.40;99.90;;;;;;5022453;28;20216;-75
2024/03/05 13:09:22;;;;;;;28.27;19.55;;;8.40;99.90;;;;;;5026508;28;20205;-75
2024/03/05 13:11:50;;;;;;;25.70;17.40;;;8.50;99.90;;;;;;5016741;28;20204;-74
2024/03/05 13:14:18;;;;;;;24.85;17.77;;;8.40;99.90;;;;;;5032234;28;20224;-74
2024/03/05 13:16:45;;;;;;;19.98;16.83;;;8.40;99.90;;;;;;5031662;28;20270;-74
2024/03/05 13:19:13;;;;;;;29.48;18.10;;;8.50;99.90;;;;;;5030364;28;20290;-74
2024/03/05 13:21:42;;;;;;;27.60;17.63;;;8.30;99.90;;;;;;5031177;28;20219;-73
2024/03/05 13:24:10;;;;;;;24.70;18.50;;;8.40;99.90;;;;;;5032096;28;20249;-74
2024/03/05 13:26:40;;;;;;;26.08;16.20;;;8.40;99.90;;;;;;5032962;28;20655;-74
2024/03/05 13:29:08;;;;;;;23.27;16.83;;;8.40;99.90;;;;;;5036259;28;20200;-74
2024/03/05 13:31:35;;;;;;;20.73;15.10;;;8.30;99.90;;;;;;5037812;28;20227;-74
2024/03/05 13:34:04;;;;;;;21.35;15.50;;;8.40;99.90;;;;;;5036463;28;20354;-74
2024/03/05 13:36:31;;;;;;;24.15;13.45;;;8.40;99.90;;;;;;5027925;28;20201;-74
2024/03/05 13:39:00;;;;;;;21.02;16.25;;;8.40;99.90;;;;;;5030406;28;20201;-74
2024/03/05 13:41:28;;;;;;;23.75;14.13;;;8.30;99.90;;;;;;5027851;28;20296;-74
2024/03/05 13:43:57;;;;;;;30.83;15.63;;;8.30;99.90;;;;;;5024906;28;20229;-73
2024/03/05 13:46:25;;;;;;;21.92;15.07;;;8.30;99.90;;;;;;5027626;28;20536;-74
2024/03/05 13:48:53;;;;;;;22.30;15.93;;;8.30;99.90;;;;;;5034374;28;20232;-74
2024/03/05 13:51:20;;;;;;;24.63;16.52;;;8.30;99.90;;;;;;5030210;28;20213;-74
2024/03/05 13:53:48;;;;;;;21.33;14.75;;;8.30;99.90;;;;;;5030506;28;20229;-73
2024/03/05 13:56:17;;;;;;;18.42;13.27;;;8.30;99.90;;;;;;5033376;28;20202;-76
2024/03/05 13:58:45;;;;;;;20.33;14.70;;;8.30;99.90;;;;;;5034444;28;20346;-74
2024/03/05 14:01:12;;;;;;;16.90;14.25;;;8.30;99.90;;;;;;5034557;28;20280;-74
2024/03/05 14:03:39;;;;;;;22.90;14.60;;;8.20;99.90;;;;;;5016446;28;20240;-73
2024/03/05 14:06:06;;;;;;;26.13;16.27;;;8.20;99.90;;;;;;5031792;28;20205;-75
2024/03/05 14:08:33;;;;;;;22.02;14.85;;;8.10;99.90;;;;;;5029551;28;20212;-73
2024/03/05 14:11:03;;;;;;;20.85;14.07;;;8.00;99.90;;;;;;5031453;28;20205;-75
2024/03/05 14:13:32;;;;;;;20.38;14.98;;;8.00;99.90;;;;;;5034060;28;20279;-75
2024/03/05 14:16:00;;;;;;;20.83;15.38;;;8.00;99.90;;;;;;5025457;28;20210;-73
2024/03/05 14:18:27;;;;;;;19.10;14.30;;;8.00;99.90;;;;;;5033169;28;20200;-74
2024/03/05 14:20:54;;;;;;;25.50;16.40;;;8.00;99.90;;;;;;5031409;28;20224;-73
2024/03/05 14:23:21;;;;;;;23.08;14.60;;;8.00;99.90;;;;;;5027143;28;20224;-75
2024/03/05 14:25:48;;;;;;;30.83;17.00;;;8.00;99.90;;;;;;5029387;28;20226;-75